Orumieh, Iran
Current Conditions -  °F | °C
As of 1:00 PM on Wednesday 22 Oct 2014 (Local Time) from OITR Reporting Station
Few Clouds Few Clouds  
Wind Chill: 59°   Ceiling: Unl
Heat Index: 59°   Visibility: 4mi
Dew Point: 45°   Wind: 5mph
Humidity: 59%   Direction: 170°S
Pressure: 30.12"   Gusts: NA
Location:  37.53°N, 45.08°E
Report Text: OITR 221000Z 17004KT 7000 FEW035TCU 15/07 Q1020
Loading
Personal Weather Stations






























Interactive Weather Map New forecast layout! Learn more

10-Day Weather Forecast

Advertisements
Track Severe Weather on mobile